Portsmouth, VA (23709)

5:08 AM EDT on August 31, 2015 (GMT -0400)
West Cradock | | Change Station
CLOSE
Current Station
Personal Weather Station
Location: Portsmouth, VA
Elevation: 13 ft
Nearby Weather Stations

Elev 13 ft 36.80 °N, 76.33 °W | Updated 30 seconds ago

Overcast
Overcast
74.1 °F
Feels Like 72 °F
N
3.0
Wind Variable Wind from SW
Gusts 5.0 mph

Today
High -- | Low -- °F
--% Chance of Precip.
Yesterday
High -- | Low -- °F
Precip. -- in
6:35 AM 7:35 PM
Waning Gibbous, 96% visible
Pressure 30.10 in
Visibility 10.0 miles
Clouds Overcast 8500 ft
Heat Index 72 °F
Dew Point 71 °F
Humidity 91%
Rainfall in
Snow Depth Not available.
UV 0 out of 12
Pollen 8.80 out of 12
Air Quality Not available.
Flu Activity Not available.
METAR KORF 310851Z AUTO 20005KT 10SM OVC085 24/21 A3010 RMK AO2 SLP193 T02390206 55001 TSNO
Pressure 30.10 in
Visibility 10.0 miles
Clouds Overcast 8500 ft
Heat Index 72 °F
Dew Point 71 °F
Humidity 91%
Rainfall in
Snow Depth Not available.
UV 0 out of 12
Pollen 8.80 out of 12
Air Quality Not available.
Flu Activity Not available.
METAR KORF 310851Z AUTO 20005KT 10SM OVC085 24/21 A3010 RMK AO2 SLP193 T02390206 55001 TSNO

10-Day Weather Forecast

×

Almanac

Astronomy

Aug. 31, 2015 Rise Set
Actual Time
Civil Twilight
Nautical Twilight
Astronomical Twilight
Moon
Length of Visible Light
Length of Day
Tomorrow will be .
, % of the Moon is Illuminated

Today's Extremes

State Highs State Lows

Community

WunderPhotos

Upload Photos

1,851,227 photos uploaded!

WunderBlogs® & News

Nearby

Air Quality

  Air Quality AQ Index Pollutant
Not available.

Snow Depth

Station Depth Elevation

Earthquake Activity

City Distance Mag. Time & Date
Minimum magnitude displayed is 2.5.

Coastal Water Temperatures

Place Temperature

Stations

Nearby Weather Stations

Station Location Temp. Windchill Dew Point Humidity Wind Precip. Elev Updated Type